Time;durP1;ratioP1;P1;durP2;ratioP2;P2;SDS_P1;SDS_P2;PMS_P1;PMS_P2;Temp;Humidity;BMP_temperature;BMP_pressure;BME280_temperature;BME280_humidity;BME280_pressure;Samples;Min_cycle;Max_cycle;Signal;HPM_P1;HPM_P2
2022/12/26 00:00:10;;;;;;;2.90;1.45;;;;;;;;;;13016345;22;20030;-88
2022/12/26 00:05:14;;;;;;;1.77;1.20;;;;;;;;;;13017749;22;20026;-87
2022/12/26 00:10:18;;;;;;;2.67;1.17;;;;;;;;;;13043980;22;20026;-88
2022/12/26 00:15:23;;;;;;;1.63;1.02;;;;;;;;;;13017797;22;20023;-87
2022/12/26 00:20:26;;;;;;;1.70;1.05;;;;;;;;;;12999741;22;20027;-85
2022/12/26 00:25:33;;;;;;;3.15;1.33;;;;;;;;;;12977251;22;20072;-86
2022/12/26 00:30:39;;;;;;;1.52;1.10;;;;;;;;;;12975839;22;20094;-85
2022/12/26 00:35:43;;;;;;;1.98;1.10;;;;;;;;;;12978793;22;20050;-86
2022/12/26 00:40:46;;;;;;;1.65;0.90;;;;;;;;;;13018901;22;20015;-87
2022/12/26 00:45:51;;;;;;;2.85;1.10;;;;;;;;;;13063795;22;20061;-87
2022/12/26 00:50:55;;;;;;;1.58;1.00;;;;;;;;;;13020924;22;20054;-91
2022/12/26 00:55:59;;;;;;;1.30;1.00;;;;;;;;;;13021666;22;20019;-88
2022/12/26 01:01:08;;;;;;;1.60;0.88;;;;;;;;;;13021920;22;20030;-87
2022/12/26 01:06:13;;;;;;;3.03;0.93;;;;;;;;;;13020861;22;20098;-88
2022/12/26 01:11:38;;;;;;;0.90;0.60;;;;;;;;;;13062151;22;20406;-87
2022/12/26 01:16:45;;;;;;;1.67;0.70;;;;;;;;;;13009180;22;20031;-85
2022/12/26 01:21:49;;;;;;;1.13;0.88;;;;;;;;;;12980259;22;20027;-85
2022/12/26 01:26:52;;;;;;;0.98;0.90;;;;;;;;;;12980378;22;20055;-86
2022/12/26 01:31:57;;;;;;;1.55;0.80;;;;;;;;;;12980839;22;20054;-85
2022/12/26 01:37:00;;;;;;;0.75;0.68;;;;;;;;;;12980742;22;20023;-85
2022/12/26 01:42:11;;;;;;;2.33;0.88;;;;;;;;;;12978580;22;20030;-85
2022/12/26 01:47:16;;;;;;;0.95;0.70;;;;;;;;;;12956495;22;20059;-86
2022/12/26 01:52:25;;;;;;;2.15;0.77;;;;;;;;;;12977327;22;20029;-84
2022/12/26 01:57:31;;;;;;;1.13;0.65;;;;;;;;;;13016030;22;20019;-85
2022/12/26 02:07:56;;;;;;;2.17;0.93;;;;;;;;;;13018565;22;20511;-87
2022/12/26 02:12:59;;;;;;;0.68;0.55;;;;;;;;;;13018682;22;20058;-90
2022/12/26 02:18:05;;;;;;;0.90;0.70;;;;;;;;;;13005436;22;20031;-87
2022/12/26 02:23:45;;;;;;;0.87;0.63;;;;;;;;;;13017777;22;20027;-87
2022/12/26 02:29:12;;;;;;;2.08;1.20;;;;;;;;;;13019801;22;20027;-89
2022/12/26 02:34:20;;;;;;;1.55;0.73;;;;;;;;;;13020190;22;20039;-91
2022/12/26 02:39:37;;;;;;;1.17;0.75;;;;;;;;;;13020468;22;20023;-87
2022/12/26 03:17:26;;;;;;;1.08;0.85;;;;;;;;;;13017630;22;20292;-87
2022/12/26 03:22:38;;;;;;;1.95;0.70;;;;;;;;;;13043353;22;20034;-88
2022/12/26 03:27:42;;;;;;;0.65;0.50;;;;;;;;;;13015280;22;20467;-87
2022/12/26 03:32:45;;;;;;;0.75;0.57;;;;;;;;;;13017621;22;20367;-88
2022/12/26 03:37:56;;;;;;;2.08;0.75;;;;;;;;;;13016155;22;20026;-88
2022/12/26 04:54:08;;;;;;;1.48;0.80;;;;;;;;;;12977745;22;20025;-85
2022/12/26 04:59:13;;;;;;;1.67;1.00;;;;;;;;;;12999844;22;20098;-89
2022/12/26 05:09:38;;;;;;;1.60;0.60;;;;;;;;;;13016655;22;20110;-88
2022/12/26 05:14:44;;;;;;;2.17;0.90;;;;;;;;;;13043739;22;20023;-87
2022/12/26 05:30:43;;;;;;;1.73;1.00;;;;;;;;;;12932138;22;20030;-87
2022/12/26 05:35:47;;;;;;;1.85;0.80;;;;;;;;;;13018384;22;20038;-90
2022/12/26 05:40:51;;;;;;;3.30;1.00;;;;;;;;;;13020685;22;20607;-88
2022/12/26 05:45:56;;;;;;;2.17;1.25;;;;;;;;;;13020251;22;20098;-88
2022/12/26 05:51:00;;;;;;;3.63;1.33;;;;;;;;;;13019223;22;20030;-88
2022/12/26 05:56:05;;;;;;;1.88;1.20;;;;;;;;;;13019425;22;20476;-87
2022/12/26 06:01:12;;;;;;;3.67;1.30;;;;;;;;;;13016666;22;20020;-91
2022/12/26 06:06:15;;;;;;;2.03;0.90;;;;;;;;;;13017835;22;20057;-88
2022/12/26 06:11:19;;;;;;;2.28;0.93;;;;;;;;;;13018542;22;20077;-87
2022/12/26 06:16:24;;;;;;;2.58;1.05;;;;;;;;;;13017843;22;20057;-88
2022/12/26 06:21:28;;;;;;;3.00;1.02;;;;;;;;;;13011162;22;20019;-87
2022/12/26 06:26:32;;;;;;;4.90;1.10;;;;;;;;;;13007071;22;20576;-85
2022/12/26 06:31:37;;;;;;;3.00;0.88;;;;;;;;;;13002758;22;20023;-86
2022/12/26 06:36:41;;;;;;;3.20;1.27;;;;;;;;;;12987345;22;20034;-89
2022/12/26 06:41:44;;;;;;;2.70;0.88;;;;;;;;;;13057075;22;20098;-87
2022/12/26 06:46:49;;;;;;;2.92;1.08;;;;;;;;;;13041484;22;20039;-89
2022/12/26 06:51:52;;;;;;;2.70;1.17;;;;;;;;;;12991712;22;20084;-85
2022/12/26 06:56:56;;;;;;;1.67;0.80;;;;;;;;;;12978285;22;20034;-86
2022/12/26 07:02:02;;;;;;;4.65;0.80;;;;;;;;;;12992187;22;20408;-84
2022/12/26 07:07:06;;;;;;;0.47;0.45;;;;;;;;;;13004882;22;20043;-88
2022/12/26 07:12:09;;;;;;;0.50;0.40;;;;;;;;;;12993985;22;20464;-86
2022/12/26 07:17:15;;;;;;;1.15;0.63;;;;;;;;;;12980700;22;20019;-86
2022/12/26 07:22:21;;;;;;;0.98;0.80;;;;;;;;;;12978917;22;20031;-86
2022/12/26 07:27:25;;;;;;;0.90;0.40;;;;;;;;;;12979973;22;20661;-86
2022/12/26 07:32:32;;;;;;;1.27;0.40;;;;;;;;;;12980600;22;20031;-86
2022/12/26 07:37:39;;;;;;;0.35;0.35;;;;;;;;;;12988486;22;20057;-89
2022/12/26 07:42:43;;;;;;;0.47;0.45;;;;;;;;;;12989355;22;20077;-90
2022/12/26 07:47:53;;;;;;;1.85;0.38;;;;;;;;;;13002303;22;20034;-88
2022/12/26 07:52:58;;;;;;;0.43;0.40;;;;;;;;;;13014813;22;20644;-83
2022/12/26 07:58:02;;;;;;;0.30;0.30;;;;;;;;;;13009564;22;20027;-83
2022/12/26 08:03:09;;;;;;;0.88;0.50;;;;;;;;;;13016654;22;20025;-83
2022/12/26 08:08:12;;;;;;;1.40;0.52;;;;;;;;;;13014851;22;20023;-83
2022/12/26 08:13:16;;;;;;;1.58;0.70;;;;;;;;;;12978138;22;20140;-85
2022/12/26 08:18:21;;;;;;;0.63;0.43;;;;;;;;;;12990470;22;20409;-87
2022/12/26 08:23:25;;;;;;;0.45;0.32;;;;;;;;;;13018505;22;20023;-85
2022/12/26 08:28:29;;;;;;;2.03;0.50;;;;;;;;;;12995189;22;20042;-87
2022/12/26 08:33:34;;;;;;;0.65;0.50;;;;;;;;;;12995505;22;20019;-87
2022/12/26 08:38:38;;;;;;;0.65;0.45;;;;;;;;;;13012567;22;20015;-85
2022/12/26 08:43:42;;;;;;;0.95;0.52;;;;;;;;;;13013176;22;20110;-84
2022/12/26 08:49:06;;;;;;;0.60;0.38;;;;;;;;;;12994434;22;20039;-88
2022/12/26 08:54:10;;;;;;;0.68;0.30;;;;;;;;;;13016361;22;20031;-87
2022/12/26 08:59:13;;;;;;;0.68;0.40;;;;;;;;;;12990231;22;20031;-85
2022/12/26 09:04:18;;;;;;;1.58;0.60;;;;;;;;;;13021032;22;20020;-86
2022/12/26 09:09:22;;;;;;;1.27;0.70;;;;;;;;;;12980536;22;20561;-86
2022/12/26 09:14:26;;;;;;;0.55;0.55;;;;;;;;;;13016200;22;20027;-86
2022/12/26 09:19:31;;;;;;;0.85;0.65;;;;;;;;;;12996119;22;20114;-88
2022/12/26 09:24:34;;;;;;;2.55;0.70;;;;;;;;;;12996876;22;20464;-87
2022/12/26 09:29:38;;;;;;;0.60;0.50;;;;;;;;;;12994214;22;20102;-86
2022/12/26 09:34:43;;;;;;;1.08;0.70;;;;;;;;;;12996962;22;20055;-83
2022/12/26 09:39:46;;;;;;;2.17;0.52;;;;;;;;;;12979606;22;20717;-84
2022/12/26 09:44:58;;;;;;;1.73;0.50;;;;;;;;;;12979959;22;20660;-84
2022/12/26 09:50:08;;;;;;;1.58;0.60;;;;;;;;;;13008185;22;20046;-84
2022/12/26 09:55:31;;;;;;;1.48;0.70;;;;;;;;;;13007780;22;20023;-86
2022/12/26 10:00:42;;;;;;;1.77;0.55;;;;;;;;;;12999144;22;20069;-85
2022/12/26 10:06:03;;;;;;;1.15;0.50;;;;;;;;;;12977745;22;20023;-84
2022/12/26 10:11:15;;;;;;;0.77;0.52;;;;;;;;;;12977164;22;20027;-85
2022/12/26 10:16:25;;;;;;;1.92;0.80;;;;;;;;;;12977882;22;20015;-85
2022/12/26 10:21:42;;;;;;;1.88;0.60;;;;;;;;;;13000604;22;20656;-84
2022/12/26 10:26:49;;;;;;;1.23;0.65;;;;;;;;;;12980931;22;20356;-85
2022/12/26 10:31:56;;;;;;;1.00;0.73;;;;;;;;;;12978193;22;20113;-84
2022/12/26 10:37:12;;;;;;;2.45;0.70;;;;;;;;;;13010383;22;20556;-85
2022/12/26 10:42:26;;;;;;;1.17;0.75;;;;;;;;;;12980434;22;20034;-85
2022/12/26 10:47:34;;;;;;;0.60;0.60;;;;;;;;;;12983602;22;20102;-85
2022/12/26 10:52:40;;;;;;;0.93;0.60;;;;;;;;;;12994997;22;20027;-87
2022/12/26 10:57:44;;;;;;;;;;;;;;;;;;13017883;22;20019;-87
2022/12/26 11:03:03;;;;;;;3.40;1.55;;;;;;;;;;12983649;22;19994;-85
2022/12/26 11:08:15;;;;;;;0.80;0.68;;;;;;;;;;13040872;22;20022;-88
2022/12/26 11:13:21;;;;;;;1.70;1.00;;;;;;;;;;13010674;22;20409;-84
2022/12/26 11:18:33;;;;;;;1.35;0.70;;;;;;;;;;13003162;22;20025;-84
2022/12/26 11:23:37;;;;;;;1.77;0.73;;;;;;;;;;13008720;22;20364;-84
2022/12/26 11:28:41;;;;;;;1.50;0.73;;;;;;;;;;13034107;22;20487;-84
2022/12/26 11:33:46;;;;;;;1.85;0.60;;;;;;;;;;13041171;22;20268;-84
2022/12/26 11:38:54;;;;;;;1.95;0.70;;;;;;;;;;13039190;22;20042;-84
2022/12/26 11:44:01;;;;;;;0.85;0.65;;;;;;;;;;13005555;22;20027;-84
2022/12/26 11:49:05;;;;;;;1.42;0.60;;;;;;;;;;13006114;22;20106;-84
2022/12/26 11:54:26;;;;;;;2.88;0.70;;;;;;;;;;13006519;22;20027;-85
2022/12/26 11:59:29;;;;;;;2.22;0.77;;;;;;;;;;12987625;22;20019;-86
2022/12/26 12:04:33;;;;;;;1.40;0.85;;;;;;;;;;13015021;22;20019;-89
2022/12/26 12:09:45;;;;;;;1.98;0.80;;;;;;;;;;13010475;22;20464;-91
2022/12/26 12:14:58;;;;;;;2.40;0.65;;;;;;;;;;13007345;22;20075;-87
2022/12/26 12:20:19;;;;;;;2.53;0.73;;;;;;;;;;12978310;22;20023;-85
2022/12/26 12:25:39;;;;;;;2.58;0.70;;;;;;;;;;12990994;22;20114;-89
2022/12/26 12:30:45;;;;;;;;;;;;;;;;;;13010853;22;20030;-91
2022/12/26 12:35:59;;;;;;;0.93;0.60;;;;;;;;;;13030848;22;20003;-86
2022/12/26 12:41:17;;;;;;;0.60;0.40;;;;;;;;;;12976601;22;20027;-85
2022/12/26 12:46:29;;;;;;;1.08;0.68;;;;;;;;;;13007308;22;20031;-85
2022/12/26 12:51:38;;;;;;;1.70;0.50;;;;;;;;;;12980459;22;20031;-86
2022/12/26 12:56:49;;;;;;;0.30;0.30;;;;;;;;;;12980890;22;20029;-85
2022/12/26 13:01:59;;;;;;;0.50;0.30;;;;;;;;;;12954524;22;20020;-85
2022/12/26 13:07:14;;;;;;;3.03;0.57;;;;;;;;;;13036721;22;20069;-90
2022/12/26 13:12:22;;;;;;;0.90;0.50;;;;;;;;;;13018762;22;20110;-88
2022/12/26 13:17:36;;;;;;;1.02;0.40;;;;;;;;;;13058642;22;20046;-88
2022/12/26 13:28:15;;;;;;;1.55;0.40;;;;;;;;;;13025327;22;20023;-88
2022/12/26 13:33:20;;;;;;;0.77;0.38;;;;;;;;;;13051531;22;20019;-86
2022/12/26 13:38:25;;;;;;;0.30;0.28;;;;;;;;;;13025699;22;20030;-88
2022/12/26 13:48:57;;;;;;;0.50;0.28;;;;;;;;;;13002669;22;20019;-84
2022/12/26 13:54:10;;;;;;;0.45;0.30;;;;;;;;;;13006032;22;20548;-84
2022/12/26 13:59:20;;;;;;;1.75;0.50;;;;;;;;;;13009522;22;20504;-83
2022/12/26 14:04:39;;;;;;;0.90;0.50;;;;;;;;;;12981489;22;20023;-84
2022/12/26 14:10:04;;;;;;;2.15;0.50;;;;;;;;;;13008346;22;20027;-84
2022/12/26 14:15:20;;;;;;;1.83;0.80;;;;;;;;;;12978676;22;20019;-84
2022/12/26 14:20:35;;;;;;;1.08;0.50;;;;;;;;;;12979391;22;20038;-84
2022/12/26 14:25:52;;;;;;;1.10;0.65;;;;;;;;;;12988603;22;20019;-87
2022/12/26 14:31:10;;;;;;;1.42;0.93;;;;;;;;;;13066159;22;20030;-86
2022/12/26 14:36:25;;;;;;;0.82;0.63;;;;;;;;;;12979550;22;20034;-84
2022/12/26 14:47:09;;;;;;;3.15;1.15;;;;;;;;;;12851464;23;20084;-87
2022/12/26 14:52:39;;;;;;;1.88;0.82;;;;;;;;;;13001505;22;20073;-84
2022/12/26 14:57:45;;;;;;;0.77;0.52;;;;;;;;;;13004229;22;20050;-83
2022/12/26 15:03:08;;;;;;;0.63;0.40;;;;;;;;;;13011013;22;20027;-87
2022/12/26 15:08:44;;;;;;;0.60;0.55;;;;;;;;;;13050415;22;20025;-87
2022/12/26 15:14:00;;;;;;;;;;;;;;;;;;13007169;22;20023;-86
2022/12/26 15:19:38;;;;;;;0.80;0.40;;;;;;;;;;13008734;22;20300;-85
2022/12/26 15:25:07;;;;;;;1.15;0.47;;;;;;;;;;12953241;22;20023;-85
2022/12/26 15:30:22;;;;;;;0.80;0.40;;;;;;;;;;12973027;22;20015;-84
2022/12/26 15:35:32;;;;;;;0.90;0.50;;;;;;;;;;12976666;22;20131;-84
2022/12/26 15:40:43;;;;;;;1.33;0.60;;;;;;;;;;12975445;22;20019;-85
2022/12/26 15:45:51;;;;;;;0.85;0.45;;;;;;;;;;12975987;22;20019;-85
2022/12/26 15:51:01;;;;;;;1.17;0.77;;;;;;;;;;13004725;22;20031;-86
2022/12/26 15:56:24;;;;;;;1.98;0.60;;;;;;;;;;12973179;22;20105;-85
2022/12/26 16:01:39;;;;;;;3.20;1.70;;;;;;;;;;12975755;22;20027;-86
2022/12/26 16:07:07;;;;;;;3.67;1.50;;;;;;;;;;12985084;22;20069;-91
2022/12/26 16:12:24;;;;;;;2.83;1.13;;;;;;;;;;13028206;22;20031;-90
2022/12/26 16:17:29;;;;;;;1.02;0.60;;;;;;;;;;13006102;22;20027;-89
2022/12/26 16:22:49;;;;;;;3.13;1.80;;;;;;;;;;12998888;22;20031;-86
2022/12/26 16:27:55;;;;;;;1.85;1.17;;;;;;;;;;12976353;22;20277;-87
2022/12/26 16:33:00;;;;;;;1.70;0.90;;;;;;;;;;12977755;22;20023;-86
2022/12/26 16:38:08;;;;;;;1.02;0.60;;;;;;;;;;12984874;22;20101;-86
2022/12/26 16:43:26;;;;;;;0.43;0.43;;;;;;;;;;12969140;22;20023;-86
2022/12/26 16:48:31;;;;;;;1.00;0.50;;;;;;;;;;12970207;22;20721;-86
2022/12/26 16:53:44;;;;;;;1.63;0.50;;;;;;;;;;13005181;22;20561;-85
2022/12/26 16:58:58;;;;;;;0.57;0.30;;;;;;;;;;13015165;22;20019;-89
2022/12/26 17:04:07;;;;;;;5.00;0.85;;;;;;;;;;13015773;22;20051;-90
2022/12/26 17:09:13;;;;;;;;;;;;;;;;;;13016493;22;20023;-90
2022/12/26 17:14:24;;;;;;;0.73;0.40;;;;;;;;;;13009284;22;19915;-86
2022/12/26 17:19:30;;;;;;;1.05;0.40;;;;;;;;;;13001032;22;20464;-87
2022/12/26 17:24:35;;;;;;;;;;;;;;;;;;12979269;22;20353;-86
2022/12/26 17:29:50;;;;;;;1.60;0.88;;;;;;;;;;12979128;22;19919;-86
2022/12/26 17:34:54;;;;;;;1.52;0.90;;;;;;;;;;12982132;22;20610;-86
2022/12/26 17:40:08;;;;;;;1.45;0.47;;;;;;;;;;13058150;22;20082;-88
2022/12/26 17:45:18;;;;;;;2.60;1.10;;;;;;;;;;13017743;22;20019;-89
2022/12/26 17:50:24;;;;;;;3.42;0.88;;;;;;;;;;13017256;22;20490;-89
2022/12/26 17:55:28;;;;;;;0.83;0.60;;;;;;;;;;13011141;22;20967;-91
2022/12/26 18:00:32;;;;;;;1.63;0.90;;;;;;;;;;13030368;22;20252;-88
2022/12/26 18:05:37;;;;;;;0.82;0.40;;;;;;;;;;13013036;22;20468;-93
2022/12/26 18:10:41;;;;;;;1.52;0.60;;;;;;;;;;13016476;22;20030;-90
2022/12/26 18:15:45;;;;;;;0.70;0.50;;;;;;;;;;13020839;22;20460;-88
2022/12/26 18:20:54;;;;;;;2.90;0.63;;;;;;;;;;13049607;22;20019;-90
2022/12/26 18:26:01;;;;;;;0.68;0.68;;;;;;;;;;13044673;22;20031;-88
2022/12/26 18:31:05;;;;;;;0.82;0.50;;;;;;;;;;13018787;22;20510;-89
2022/12/26 18:36:11;;;;;;;0.93;0.80;;;;;;;;;;13015226;22;20023;-85
2022/12/26 18:41:17;;;;;;;1.95;1.05;;;;;;;;;;12979523;22;20023;-85
2022/12/26 18:46:22;;;;;;;1.60;1.20;;;;;;;;;;12984504;22;20033;-85
2022/12/26 18:51:27;;;;;;;2.13;1.00;;;;;;;;;;12985937;22;20228;-85
2022/12/26 18:56:34;;;;;;;2.83;1.33;;;;;;;;;;13002662;22;20084;-85
2022/12/26 19:01:38;;;;;;;2.22;1.20;;;;;;;;;;13038425;22;20638;-87
2022/12/26 19:06:42;;;;;;;3.33;1.50;;;;;;;;;;13024988;22;20023;-87
2022/12/26 19:11:50;;;;;;;1.77;1.17;;;;;;;;;;12991561;22;20135;-88
2022/12/26 19:16:54;;;;;;;2.90;1.33;;;;;;;;;;12995090;22;20098;-85
2022/12/26 19:21:58;;;;;;;4.07;1.13;;;;;;;;;;12978091;22;20093;-85
2022/12/26 19:27:03;;;;;;;1.90;1.13;;;;;;;;;;13005378;22;20023;-87
2022/12/26 19:32:07;;;;;;;1.53;0.80;;;;;;;;;;12977802;22;20023;-86
2022/12/26 19:37:10;;;;;;;1.67;1.00;;;;;;;;;;12977687;22;20031;-86
2022/12/26 19:42:16;;;;;;;3.17;1.38;;;;;;;;;;12978041;22;20029;-87
2022/12/26 19:47:25;;;;;;;1.10;0.70;;;;;;;;;;12978813;22;20090;-86
2022/12/26 19:52:31;;;;;;;2.15;1.10;;;;;;;;;;13006490;22;20026;-90
2022/12/26 19:57:36;;;;;;;2.90;1.10;;;;;;;;;;13004154;22;20027;-89
2022/12/26 20:02:40;;;;;;;1.25;0.80;;;;;;;;;;12982561;22;20903;-86
2022/12/26 20:07:43;;;;;;;2.17;1.27;;;;;;;;;;12975545;22;20019;-85
2022/12/26 20:12:51;;;;;;;3.63;1.67;;;;;;;;;;12978803;22;20496;-86
2022/12/26 20:17:54;;;;;;;3.28;1.60;;;;;;;;;;12978677;22;20431;-86
2022/12/26 20:22:58;;;;;;;1.88;1.20;;;;;;;;;;12979047;22;20027;-85
2022/12/26 20:28:08;;;;;;;1.13;0.80;;;;;;;;;;12981555;22;20350;-88
2022/12/26 20:33:12;;;;;;;1.70;0.90;;;;;;;;;;13034096;22;20035;-87
2022/12/26 20:38:18;;;;;;;;;;;;;;;;;;13033124;22;20057;-88
2022/12/26 20:43:23;;;;;;;1.52;0.73;;;;;;;;;;13032970;22;19978;-89
2022/12/26 20:48:26;;;;;;;2.92;1.33;;;;;;;;;;13007938;22;20027;-85
2022/12/26 20:53:30;;;;;;;2.10;1.38;;;;;;;;;;12976573;22;20026;-86
2022/12/26 20:58:36;;;;;;;1.42;0.82;;;;;;;;;;13011558;22;20054;-84
2022/12/26 21:03:40;;;;;;;2.15;1.27;;;;;;;;;;12979937;22;20019;-85
2022/12/26 21:08:46;;;;;;;2.30;1.35;;;;;;;;;;12980796;22;20625;-85
2022/12/26 21:13:54;;;;;;;3.95;1.13;;;;;;;;;;13007848;22;20029;-88
2022/12/26 21:18:58;;;;;;;3.67;1.40;;;;;;;;;;13021643;22;20023;-88
2022/12/26 21:24:04;;;;;;;4.32;1.50;;;;;;;;;;13000487;22;20522;-85
2022/12/26 21:29:16;;;;;;;1.30;0.95;;;;;;;;;;12979299;22;20094;-85
2022/12/26 21:34:23;;;;;;;1.50;0.88;;;;;;;;;;12980426;22;20070;-85
2022/12/26 21:39:26;;;;;;;2.70;0.95;;;;;;;;;;12980729;22;20023;-85
2022/12/26 21:44:32;;;;;;;1.85;1.10;;;;;;;;;;12980470;22;20026;-85
2022/12/26 21:49:38;;;;;;;4.97;2.30;;;;;;;;;;12979245;22;20547;-84
2022/12/26 22:00:05;;;;;;;3.50;1.70;;;;;;;;;;12988075;22;20648;-87
2022/12/26 22:05:09;;;;;;;2.63;1.42;;;;;;;;;;13063966;22;20085;-88
2022/12/26 22:16:11;;;;;;;3.90;1.90;;;;;;;;;;12951727;22;20049;-84
2022/12/26 22:21:17;;;;;;;4.72;1.50;;;;;;;;;;12996680;22;20021;-90
2022/12/26 22:26:24;;;;;;;4.90;1.75;;;;;;;;;;13040560;22;20041;-89
2022/12/26 22:31:31;;;;;;;1.88;1.02;;;;;;;;;;13015993;22;20102;-87
2022/12/26 22:36:35;;;;;;;3.72;1.80;;;;;;;;;;13040657;22;20027;-86
2022/12/26 22:41:39;;;;;;;5.15;1.92;;;;;;;;;;12961969;22;20047;-85
2022/12/26 22:46:48;;;;;;;3.80;1.80;;;;;;;;;;12981975;22;20072;-85
2022/12/26 22:51:52;;;;;;;3.42;1.90;;;;;;;;;;12982412;22;20327;-85
2022/12/26 22:56:55;;;;;;;5.55;2.38;;;;;;;;;;12941241;22;20515;-85
2022/12/26 23:02:00;;;;;;;6.68;2.60;;;;;;;;;;12981119;22;20049;-84
2022/12/26 23:07:04;;;;;;;5.45;2.22;;;;;;;;;;12981813;22;20038;-84
2022/12/26 23:22:51;;;;;;;5.30;2.10;;;;;;;;;;12962242;22;20472;-85
2022/12/26 23:33:17;;;;;;;11.27;2.63;;;;;;;;;;13014698;22;20022;-87
2022/12/26 23:38:20;;;;;;;6.15;2.00;;;;;;;;;;13013390;22;20050;-89
2022/12/26 23:43:27;;;;;;;4.10;2.17;;;;;;;;;;13042967;22;20066;-86
2022/12/26 23:48:35;;;;;;;4.63;1.90;;;;;;;;;;13004384;22;20019;-82
2022/12/26 23:53:38;;;;;;;3.83;1.67;;;;;;;;;;12973361;22;20027;-85
2022/12/26 23:58:41;;;;;;;6.25;1.83;;;;;;;;;;12973281;22;20251;-84
